sensor_id;sensor_type;location;lat;lon;timestamp;pressure;altitude;pressure_sealevel;temperature;humidity
18231;BME280;9240;49.966;21.994;2024-02-15T00:00:14;99565.25;;;-1.48;84.62
18231;BME280;9240;49.966;21.994;2024-02-15T00:02:40;99563.50;;;-1.46;84.31
18231;BME280;9240;49.966;21.994;2024-02-15T00:05:06;99562.63;;;-1.45;84.19
18231;BME280;9240;49.966;21.994;2024-02-15T00:07:32;99556.63;;;-1.42;84.01
18231;BME280;9240;49.966;21.994;2024-02-15T00:09:58;99553.19;;;-1.41;84.15
18231;BME280;9240;49.966;21.994;2024-02-15T00:12:23;99554.00;;;-1.39;84.17
18231;BME280;9240;49.966;21.994;2024-02-15T00:14:50;99555.69;;;-1.38;84.10
18231;BME280;9240;49.966;21.994;2024-02-15T00:17:16;99554.88;;;-1.40;84.23
18231;BME280;9240;49.966;21.994;2024-02-15T00:19:41;99562.59;;;-1.42;83.95
18231;BME280;9240;49.966;21.994;2024-02-15T00:22:07;99555.78;;;-1.43;84.25
18231;BME280;9240;49.966;21.994;2024-02-15T00:24:32;99563.47;;;-1.43;83.97
18231;BME280;9240;49.966;21.994;2024-02-15T00:26:58;99571.13;;;-1.44;84.41
18231;BME280;9240;49.966;21.994;2024-02-15T00:29:24;99577.13;;;-1.45;84.25
18231;BME280;9240;49.966;21.994;2024-02-15T00:31:50;99561.88;;;-1.48;84.45
18231;BME280;9240;49.966;21.994;2024-02-15T00:34:16;99571.22;;;-1.49;84.61
18231;BME280;9240;49.966;21.994;2024-02-15T00:36:42;99573.81;;;-1.50;84.42
18231;BME280;9240;49.966;21.994;2024-02-15T00:39:08;99576.38;;;-1.50;84.66
18231;BME280;9240;49.966;21.994;2024-02-15T00:41:33;99573.81;;;-1.52;84.98
18231;BME280;9240;49.966;21.994;2024-02-15T00:43:59;99574.63;;;-1.48;84.85
18231;BME280;9240;49.966;21.994;2024-02-15T00:46:25;99564.38;;;-1.45;84.82
18231;BME280;9240;49.966;21.994;2024-02-15T00:48:51;99565.97;;;-1.40;85.03
18231;BME280;9240;49.966;21.994;2024-02-15T00:51:17;99567.56;;;-1.35;84.96
18231;BME280;9240;49.966;21.994;2024-02-15T00:53:43;99557.28;;;-1.32;84.97
18231;BME280;9240;49.966;21.994;2024-02-15T00:56:08;99563.22;;;-1.29;85.10
18231;BME280;9240;49.966;21.994;2024-02-15T00:58:34;99573.38;;;-1.27;84.97
18231;BME280;9240;49.966;21.994;2024-02-15T01:00:59;99572.50;;;-1.26;85.03
18231;BME280;9240;49.966;21.994;2024-02-15T01:03:25;99563.16;;;-1.27;84.98
18231;BME280;9240;49.966;21.994;2024-02-15T01:05:52;99568.28;;;-1.27;84.92
18231;BME280;9240;49.966;21.994;2024-02-15T01:08:17;99563.22;;;-1.29;84.97
18231;BME280;9240;49.966;21.994;2024-02-15T01:10:43;99562.34;;;-1.29;84.97
18231;BME280;9240;49.966;21.994;2024-02-15T01:13:08;99568.31;;;-1.29;84.89
18231;BME280;9240;49.966;21.994;2024-02-15T01:15:34;99572.56;;;-1.29;85.34
18231;BME280;9240;49.966;21.994;2024-02-15T01:18:00;99564.94;;;-1.31;85.07
18231;BME280;9240;49.966;21.994;2024-02-15T01:20:25;99563.22;;;-1.29;85.08
18231;BME280;9240;49.966;21.994;2024-02-15T01:22:52;99564.84;;;-1.28;85.04
18231;BME280;9240;49.966;21.994;2024-02-15T01:25:18;99555.50;;;-1.27;85.39
18231;BME280;9240;49.966;21.994;2024-02-15T01:27:43;99549.50;;;-1.26;85.46
18231;BME280;9240;49.966;21.994;2024-02-15T01:30:09;99547.84;;;-1.27;85.37
18231;BME280;9240;49.966;21.994;2024-02-15T01:32:35;99552.94;;;-1.27;85.28
18231;BME280;9240;49.966;21.994;2024-02-15T01:35:01;99555.50;;;-1.27;85.26
18231;BME280;9240;49.966;21.994;2024-02-15T01:37:27;99561.53;;;-1.30;85.24
18231;BME280;9240;49.966;21.994;2024-02-15T01:39:54;99569.19;;;-1.31;84.98
18231;BME280;9240;49.966;21.994;2024-02-15T01:42:19;99565.06;;;-1.37;85.25
18231;BME280;9240;49.966;21.994;2024-02-15T01:44:45;99571.06;;;-1.40;84.96
18231;BME280;9240;49.966;21.994;2024-02-15T01:47:11;99573.69;;;-1.43;85.21
18231;BME280;9240;49.966;21.994;2024-02-15T01:49:36;99565.22;;;-1.46;85.28
18231;BME280;9240;49.966;21.994;2024-02-15T01:52:02;99556.75;;;-1.50;85.36
18231;BME280;9240;49.966;21.994;2024-02-15T01:54:30;99558.50;;;-1.52;85.36
18231;BME280;9240;49.966;21.994;2024-02-15T01:56:57;99562.00;;;-1.56;85.27
18231;BME280;9240;49.966;21.994;2024-02-15T01:59:23;99556.97;;;-1.61;85.65
18231;BME280;9240;49.966;21.994;2024-02-15T02:01:50;99561.28;;;-1.63;85.54
18231;BME280;9240;49.966;21.994;2024-02-15T02:04:16;99548.50;;;-1.63;85.68
18231;BME280;9240;49.966;21.994;2024-02-15T02:06:42;99548.47;;;-1.61;85.57
18231;BME280;9240;49.966;21.994;2024-02-15T02:09:10;99560.31;;;-1.59;85.93
18231;BME280;9240;49.966;21.994;2024-02-15T02:11:36;99552.63;;;-1.56;85.67
18231;BME280;9240;49.966;21.994;2024-02-15T02:14:03;99553.44;;;-1.54;85.65
18231;BME280;9240;49.966;21.994;2024-02-15T02:16:29;99555.13;;;-1.53;85.27
18231;BME280;9240;49.966;21.994;2024-02-15T02:18:55;99561.00;;;-1.49;85.52
18231;BME280;9240;49.966;21.994;2024-02-15T02:21:21;99550.78;;;-1.49;85.52
18231;BME280;9240;49.966;21.994;2024-02-15T02:23:54;99543.13;;;-1.49;85.50
18231;BME280;9240;49.966;21.994;2024-02-15T02:26:23;99543.97;;;-1.48;85.47
18231;BME280;9240;49.966;21.994;2024-02-15T02:28:49;99544.84;;;-1.49;85.20
18231;BME280;9240;49.966;21.994;2024-02-15T02:31:14;99543.97;;;-1.48;85.17
18231;BME280;9240;49.966;21.994;2024-02-15T02:33:41;99543.13;;;-1.49;85.46
18231;BME280;9240;49.966;21.994;2024-02-15T02:36:07;99538.88;;;-1.50;85.41
18231;BME280;9240;49.966;21.994;2024-02-15T02:38:33;99532.13;;;-1.53;85.43
18231;BME280;9240;49.966;21.994;2024-02-15T02:40:58;99532.13;;;-1.53;85.36
18231;BME280;9240;49.966;21.994;2024-02-15T02:43:25;99538.09;;;-1.54;85.18
18231;BME280;9240;49.966;21.994;2024-02-15T02:45:51;99535.56;;;-1.54;85.36
18231;BME280;9240;49.966;21.994;2024-02-15T02:48:16;99534.72;;;-1.56;85.01
18231;BME280;9240;49.966;21.994;2024-02-15T02:50:42;99539.88;;;-1.57;85.19
18231;BME280;9240;49.966;21.994;2024-02-15T02:53:07;99546.69;;;-1.58;85.00
18231;BME280;9240;49.966;21.994;2024-02-15T02:55:33;99539.94;;;-1.60;85.14
18231;BME280;9240;49.966;21.994;2024-02-15T02:57:59;99541.66;;;-1.62;85.39
18231;BME280;9240;49.966;21.994;2024-02-15T03:00:26;99536.59;;;-1.64;85.38
18231;BME280;9240;49.966;21.994;2024-02-15T03:02:51;99549.41;;;-1.67;85.22
18231;BME280;9240;49.966;21.994;2024-02-15T03:05:17;99549.47;;;-1.70;85.66
18231;BME280;9240;49.966;21.994;2024-02-15T03:07:42;99553.72;;;-1.69;85.68
18231;BME280;9240;49.966;21.994;2024-02-15T03:10:09;99546.91;;;-1.70;85.44
18231;BME280;9240;49.966;21.994;2024-02-15T03:12:35;99548.56;;;-1.68;85.48
18231;BME280;9240;49.966;21.994;2024-02-15T03:15:01;99546.81;;;-1.65;85.86
18231;BME280;9240;49.966;21.994;2024-02-15T03:17:28;99552.78;;;-1.65;85.61
18231;BME280;9240;49.966;21.994;2024-02-15T03:19:54;99550.25;;;-1.65;85.55
18231;BME280;9240;49.966;21.994;2024-02-15T03:22:19;99548.50;;;-1.64;85.78
18231;BME280;9240;49.966;21.994;2024-02-15T03:24:45;99554.50;;;-1.65;85.66
18231;BME280;9240;49.966;21.994;2024-02-15T03:27:10;99561.28;;;-1.64;85.93
18231;BME280;9240;49.966;21.994;2024-02-15T03:29:36;99561.28;;;-1.64;85.62
18231;BME280;9240;49.966;21.994;2024-02-15T03:32:02;99562.16;;;-1.64;85.73
18231;BME280;9240;49.966;21.994;2024-02-15T03:34:29;99562.97;;;-1.63;85.89
18231;BME280;9240;49.966;21.994;2024-02-15T03:36:54;99559.59;;;-1.65;85.68
18231;BME280;9240;49.966;21.994;2024-02-15T03:39:20;99565.56;;;-1.65;86.03
18231;BME280;9240;49.966;21.994;2024-02-15T03:41:46;99557.91;;;-1.65;85.97
18231;BME280;9240;49.966;21.994;2024-02-15T03:44:11;99564.66;;;-1.62;85.75
18231;BME280;9240;49.966;21.994;2024-02-15T03:46:37;99569.69;;;-1.58;86.06
18231;BME280;9240;49.966;21.994;2024-02-15T03:49:02;99571.28;;;-1.52;86.05
18231;BME280;9240;49.966;21.994;2024-02-15T03:51:29;99570.34;;;-1.48;85.95
18231;BME280;9240;49.966;21.994;2024-02-15T03:53:55;99569.38;;;-1.41;86.09
18231;BME280;9240;49.966;21.994;2024-02-15T03:56:21;99568.38;;;-1.33;85.80
18231;BME280;9240;49.966;21.994;2024-02-15T03:58:46;99569.91;;;-1.25;86.11
18231;BME280;9240;49.966;21.994;2024-02-15T04:01:12;99567.25;;;-1.18;85.79
18231;BME280;9240;49.966;21.994;2024-02-15T04:03:37;99556.06;;;-1.13;85.65
18231;BME280;9240;49.966;21.994;2024-02-15T04:06:03;99556.81;;;-1.08;85.89
18231;BME280;9240;49.966;21.994;2024-02-15T04:08:30;99567.78;;;-1.02;86.01
18231;BME280;9240;49.966;21.994;2024-02-15T04:10:56;99560.88;;;-0.97;85.93
18231;BME280;9240;49.966;21.994;2024-02-15T04:13:21;99566.72;;;-0.92;85.65
18231;BME280;9240;49.966;21.994;2024-02-15T04:15:47;99568.31;;;-0.86;85.53
18231;BME280;9240;49.966;21.994;2024-02-15T04:18:13;99568.16;;;-0.79;85.37
18231;BME280;9240;49.966;21.994;2024-02-15T04:20:38;99560.38;;;-0.74;85.50
18231;BME280;9240;49.966;21.994;2024-02-15T04:23:04;99567.06;;;-0.67;85.40
18231;BME280;9240;49.966;21.994;2024-02-15T04:25:31;99561.81;;;-0.60;85.36
18231;BME280;9240;49.966;21.994;2024-02-15T04:27:56;99562.53;;;-0.55;85.06
18231;BME280;9240;49.966;21.994;2024-02-15T04:30:22;99565.84;;;-0.50;84.91
18231;BME280;9240;49.966;21.994;2024-02-15T04:32:48;99561.47;;;-0.45;85.04
18231;BME280;9240;49.966;21.994;2024-02-15T04:35:13;99557.13;;;-0.41;84.75
18231;BME280;9240;49.966;21.994;2024-02-15T04:37:39;99563.00;;;-0.36;84.59
18231;BME280;9240;49.966;21.994;2024-02-15T04:40:06;99555.19;;;-0.32;84.23
18231;BME280;9240;49.966;21.994;2024-02-15T04:42:33;99555.88;;;-0.25;84.26
18231;BME280;9240;49.966;21.994;2024-02-15T04:44:58;99559.19;;;-0.20;83.93
18231;BME280;9240;49.966;21.994;2024-02-15T04:47:24;99555.72;;;-0.17;84.00
18231;BME280;9240;49.966;21.994;2024-02-15T04:49:49;99559.88;;;-0.13;83.84
18231;BME280;9240;49.966;21.994;2024-02-15T04:52:15;99560.66;;;-0.09;83.76
18231;BME280;9240;49.966;21.994;2024-02-15T04:54:40;99566.50;;;-0.04;83.79
18231;BME280;9240;49.966;21.994;2024-02-15T04:57:06;99565.56;;;-0.02;83.68
18231;BME280;9240;49.966;21.994;2024-02-15T04:59:34;99565.47;;;0.03;83.47
18231;BME280;9240;49.966;21.994;2024-02-15T05:02:00;99559.38;;;0.07;83.36
18231;BME280;9240;49.966;21.994;2024-02-15T05:04:25;99563.56;;;0.11;83.07
18231;BME280;9240;49.966;21.994;2024-02-15T05:06:51;99561.75;;;0.15;82.96
18231;BME280;9240;49.966;21.994;2024-02-15T05:09:16;99563.38;;;0.19;83.04
18231;BME280;9240;49.966;21.994;2024-02-15T05:11:42;99560.81;;;0.19;82.76
18231;BME280;9240;49.966;21.994;2024-02-15T05:14:07;99565.88;;;0.22;82.83
18231;BME280;9240;49.966;21.994;2024-02-15T05:16:34;99565.78;;;0.25;82.44
18231;BME280;9240;49.966;21.994;2024-02-15T05:19:00;99566.56;;;0.27;82.49
18231;BME280;9240;49.966;21.994;2024-02-15T05:21:26;99569.94;;;0.29;82.33
18231;BME280;9240;49.966;21.994;2024-02-15T05:23:51;99574.16;;;0.32;82.26
18231;BME280;9240;49.966;21.994;2024-02-15T05:26:17;99576.63;;;0.35;82.11
18231;BME280;9240;49.966;21.994;2024-02-15T05:28:43;99571.47;;;0.37;82.17
18231;BME280;9240;49.966;21.994;2024-02-15T05:31:12;99573.09;;;0.39;82.05
18231;BME280;9240;49.966;21.994;2024-02-15T05:33:39;99565.34;;;0.42;81.98
18231;BME280;9240;49.966;21.994;2024-02-15T05:36:04;99570.34;;;0.47;81.72
18231;BME280;9240;49.966;21.994;2024-02-15T05:38:30;99566.91;;;0.48;81.93
18231;BME280;9240;49.966;21.994;2024-02-15T05:40:56;99568.59;;;0.49;81.72
18231;BME280;9240;49.966;21.994;2024-02-15T05:43:21;99572.84;;;0.50;81.57
18231;BME280;9240;49.966;21.994;2024-02-15T05:45:47;99571.94;;;0.51;81.71
18231;BME280;9240;49.966;21.994;2024-02-15T05:48:12;99573.63;;;0.52;81.48
18231;BME280;9240;49.966;21.994;2024-02-15T05:50:39;99573.63;;;0.52;81.48
18231;BME280;9240;49.966;21.994;2024-02-15T05:53:05;99568.44;;;0.55;81.27
18231;BME280;9240;49.966;21.994;2024-02-15T05:55:31;99574.31;;;0.59;81.19
18231;BME280;9240;49.966;21.994;2024-02-15T05:57:56;99575.06;;;0.63;81.29
18231;BME280;9240;49.966;21.994;2024-02-15T06:00:22;99578.41;;;0.66;81.07
18231;BME280;9240;49.966;21.994;2024-02-15T06:02:47;99573.09;;;0.72;80.99
18231;BME280;9240;49.966;21.994;2024-02-15T06:05:13;99578.88;;;0.81;80.67
18231;BME280;9240;49.966;21.994;2024-02-15T06:07:40;99573.53;;;0.88;80.64
18231;BME280;9240;49.966;21.994;2024-02-15T06:10:06;99572.34;;;1.00;80.63
18231;BME280;9240;49.966;21.994;2024-02-15T06:12:32;99577.94;;;1.13;80.53
18231;BME280;9240;49.966;21.994;2024-02-15T06:14:58;99579.41;;;1.22;80.36
18231;BME280;9240;49.966;21.994;2024-02-15T06:17:23;99579.19;;;1.30;80.24
18231;BME280;9240;49.966;21.994;2024-02-15T06:19:49;99574.63;;;1.40;80.07
18231;BME280;9240;49.966;21.994;2024-02-15T06:22:14;99584.63;;;1.49;79.92
18231;BME280;9240;49.966;21.994;2024-02-15T06:24:41;99586.97;;;1.57;79.69
18231;BME280;9240;49.966;21.994;2024-02-15T06:27:07;99597.00;;;1.64;79.44
18231;BME280;9240;49.966;21.994;2024-02-15T06:29:32;99593.31;;;1.73;79.69
18231;BME280;9240;49.966;21.994;2024-02-15T06:31:58;99595.63;;;1.81;79.26
18231;BME280;9240;49.966;21.994;2024-02-15T06:34:24;99600.53;;;1.89;79.06
18231;BME280;9240;49.966;21.994;2024-02-15T06:36:50;99600.38;;;1.93;78.70
18231;BME280;9240;49.966;21.994;2024-02-15T06:39:15;99595.94;;;1.99;78.93
18231;BME280;9240;49.966;21.994;2024-02-15T06:41:42;99601.72;;;2.05;78.61
18231;BME280;9240;49.966;21.994;2024-02-15T06:44:08;99600.66;;;2.12;78.32
18231;BME280;9240;49.966;21.994;2024-02-15T06:46:33;99601.22;;;2.21;78.42
18231;BME280;9240;49.966;21.994;2024-02-15T06:48:59;99597.56;;;2.28;78.03
18231;BME280;9240;49.966;21.994;2024-02-15T06:51:25;99599.09;;;2.34;77.91
18231;BME280;9240;49.966;21.994;2024-02-15T06:53:50;99597.22;;;2.39;77.73
18231;BME280;9240;49.966;21.994;2024-02-15T06:56:16;99599.66;;;2.42;77.45
18231;BME280;9240;49.966;21.994;2024-02-15T06:58:43;99603.00;;;2.46;77.48
18231;BME280;9240;49.966;21.994;2024-02-15T07:01:08;99603.75;;;2.48;77.18
18231;BME280;9240;49.966;21.994;2024-02-15T07:03:34;99600.25;;;2.50;77.12
18231;BME280;9240;49.966;21.994;2024-02-15T07:05:59;99607.13;;;2.50;76.87
18231;BME280;9240;49.966;21.994;2024-02-15T07:08:25;99605.31;;;2.53;76.71
18231;BME280;9240;49.966;21.994;2024-02-15T07:10:50;99605.06;;;2.60;76.70
18231;BME280;9240;49.966;21.994;2024-02-15T07:13:16;99611.69;;;2.67;76.25
18231;BME280;9240;49.966;21.994;2024-02-15T07:15:43;99603.81;;;2.71;76.14
18231;BME280;9240;49.966;21.994;2024-02-15T07:18:08;99601.06;;;2.76;76.11
18231;BME280;9240;49.966;21.994;2024-02-15T07:20:34;99608.59;;;2.82;75.93
18231;BME280;9240;49.966;21.994;2024-02-15T07:23:00;99613.66;;;2.84;75.77
18231;BME280;9240;49.966;21.994;2024-02-15T07:25:25;99609.38;;;2.84;75.47
18231;BME280;9240;49.966;21.994;2024-02-15T07:27:51;99616.88;;;2.91;75.42
18231;BME280;9240;49.966;21.994;2024-02-15T07:30:16;99609.91;;;2.94;75.21
18231;BME280;9240;49.966;21.994;2024-02-15T07:32:43;99614.03;;;2.98;75.29
18231;BME280;9240;49.966;21.994;2024-02-15T07:35:09;99601.84;;;3.03;75.24
18231;BME280;9240;49.966;21.994;2024-02-15T07:37:35;99608.44;;;3.11;74.83
18231;BME280;9240;49.966;21.994;2024-02-15T07:40:00;99603.91;;;3.17;74.59
18231;BME280;9240;49.966;21.994;2024-02-15T07:42:26;99608.88;;;3.22;74.48
18231;BME280;9240;49.966;21.994;2024-02-15T07:44:52;99614.72;;;3.27;74.01
18231;BME280;9240;49.966;21.994;2024-02-15T07:47:17;99613.66;;;3.33;73.71
18231;BME280;9240;49.966;21.994;2024-02-15T07:49:44;99612.56;;;3.39;74.34
18231;BME280;9240;49.966;21.994;2024-02-15T07:52:10;99620.00;;;3.46;73.84
18231;BME280;9240;49.966;21.994;2024-02-15T07:54:35;99613.78;;;3.52;73.85
18231;BME280;9240;49.966;21.994;2024-02-15T07:57:01;99622.06;;;3.60;73.53
18231;BME280;9240;49.966;21.994;2024-02-15T07:59:26;99611.47;;;3.68;73.53
18231;BME280;9240;49.966;21.994;2024-02-15T08:01:52;99616.41;;;3.74;73.26
18231;BME280;9240;49.966;21.994;2024-02-15T08:04:18;99611.88;;;3.79;73.24
18231;BME280;9240;49.966;21.994;2024-02-15T08:06:45;99618.59;;;3.84;72.68
18231;BME280;9240;49.966;21.994;2024-02-15T08:09:11;99616.72;;;3.87;72.59
18231;BME280;9240;49.966;21.994;2024-02-15T08:11:36;99625.25;;;3.89;72.55
18231;BME280;9240;49.966;21.994;2024-02-15T08:14:02;99628.69;;;3.90;72.45
18231;BME280;9240;49.966;21.994;2024-02-15T08:16:27;99622.75;;;3.88;72.42
18231;BME280;9240;49.966;21.994;2024-02-15T08:18:53;99611.53;;;3.89;72.15
18231;BME280;9240;49.966;21.994;2024-02-15T08:21:25;99620.69;;;3.96;71.90
18231;BME280;9240;49.966;21.994;2024-02-15T08:23:52;99618.59;;;4.06;71.85
18231;BME280;9240;49.966;21.994;2024-02-15T08:26:17;99613.97;;;4.14;71.66
18231;BME280;9240;49.966;21.994;2024-02-15T08:28:43;99617.94;;;4.23;70.98
18231;BME280;9240;49.966;21.994;2024-02-15T08:31:08;99612.38;;;4.32;71.19
18231;BME280;9240;49.966;21.994;2024-02-15T08:33:34;99616.31;;;4.41;71.00
18231;BME280;9240;49.966;21.994;2024-02-15T08:35:59;99612.63;;;4.47;70.87
18231;BME280;9240;49.966;21.994;2024-02-15T08:38:25;99620.81;;;4.56;70.63
18231;BME280;9240;49.966;21.994;2024-02-15T08:40:52;99626.41;;;4.68;70.60
18231;BME280;9240;49.966;21.994;2024-02-15T08:43:17;99625.22;;;4.75;70.11
18231;BME280;9240;49.966;21.994;2024-02-15T08:45:43;99628.31;;;4.83;70.04
18231;BME280;9240;49.966;21.994;2024-02-15T08:48:09;99628.88;;;4.90;69.92
18231;BME280;9240;49.966;21.994;2024-02-15T08:50:35;99623.53;;;4.95;69.68
18231;BME280;9240;49.966;21.994;2024-02-15T08:53:01;99626.78;;;4.98;69.82
18231;BME280;9240;49.966;21.994;2024-02-15T08:55:26;99627.44;;;5.04;69.60
18231;BME280;9240;49.966;21.994;2024-02-15T08:57:53;99629.75;;;5.10;69.34
18231;BME280;9240;49.966;21.994;2024-02-15T09:00:19;99629.47;;;5.16;69.36
18231;BME280;9240;49.966;21.994;2024-02-15T09:02:45;99631.72;;;5.24;69.32
18231;BME280;9240;49.966;21.994;2024-02-15T09:05:11;99630.63;;;5.29;68.97
18231;BME280;9240;49.966;21.994;2024-02-15T09:07:37;99628.53;;;5.38;68.98
18231;BME280;9240;49.966;21.994;2024-02-15T09:10:03;99631.66;;;5.44;68.93
18231;BME280;9240;49.966;21.994;2024-02-15T09:12:29;99633.88;;;5.52;68.81
18231;BME280;9240;49.966;21.994;2024-02-15T09:14:56;99625.88;;;5.58;68.58
18231;BME280;9240;49.966;21.994;2024-02-15T09:17:21;99628.16;;;5.65;68.24
18231;BME280;9240;49.966;21.994;2024-02-15T09:19:47;99631.22;;;5.73;68.55
18231;BME280;9240;49.966;21.994;2024-02-15T09:22:12;99633.31;;;5.84;68.09
18231;BME280;9240;49.966;21.994;2024-02-15T09:24:38;99634.69;;;5.91;68.08
18231;BME280;9240;49.966;21.994;2024-02-15T09:27:04;99636.03;;;6.00;67.99
18231;BME280;9240;49.966;21.994;2024-02-15T09:29:30;99633.84;;;6.10;67.90
18231;BME280;9240;49.966;21.994;2024-02-15T09:31:57;99633.47;;;6.17;67.57
18231;BME280;9240;49.966;21.994;2024-02-15T09:34:23;99630.31;;;6.30;67.55
18231;BME280;9240;49.966;21.994;2024-02-15T09:36:48;99632.44;;;6.39;67.41
18231;BME280;9240;49.966;21.994;2024-02-15T09:39:14;99639.03;;;6.45;67.12
18231;BME280;9240;49.966;21.994;2024-02-15T09:41:40;99632.81;;;6.49;66.76
18231;BME280;9240;49.966;21.994;2024-02-15T09:44:06;99628.47;;;6.49;66.67
18231;BME280;9240;49.966;21.994;2024-02-15T09:49:39;99634.56;;;6.66;66.40
18231;BME280;9240;49.966;21.994;2024-02-15T09:52:06;99629.66;;;6.77;66.11
18231;BME280;9240;49.966;21.994;2024-02-15T09:54:33;99628.38;;;6.86;65.94
18231;BME280;9240;49.966;21.994;2024-02-15T09:57:01;99626.00;;;6.99;65.72
18231;BME280;9240;49.966;21.994;2024-02-15T09:59:27;99619.16;;;7.14;65.72
18231;BME280;9240;49.966;21.994;2024-02-15T10:01:58;99610.66;;;7.28;65.08
18231;BME280;9240;49.966;21.994;2024-02-15T10:04:23;99610.25;;;7.36;64.93
18231;BME280;9240;49.966;21.994;2024-02-15T10:06:50;99613.09;;;7.47;65.07
18231;BME280;9240;49.966;21.994;2024-02-15T10:09:29;99619.94;;;7.64;64.55
18231;BME280;9240;49.966;21.994;2024-02-15T10:12:37;99618.03;;;7.84;64.31
18231;BME280;9240;49.966;21.994;2024-02-15T10:15:04;99614.47;;;8.01;63.73
18231;BME280;9240;49.966;21.994;2024-02-15T10:17:29;99612.03;;;8.14;63.44
18231;BME280;9240;49.966;21.994;2024-02-15T10:20:05;99616.44;;;8.28;63.25
18231;BME280;9240;49.966;21.994;2024-02-15T10:23:10;99615.63;;;8.42;62.56
18231;BME280;9240;49.966;21.994;2024-02-15T10:25:37;99615.44;;;8.61;62.80
18231;BME280;9240;49.966;21.994;2024-02-15T10:28:03;99613.59;;;8.77;62.45
18231;BME280;9240;49.966;21.994;2024-02-15T10:30:28;99617.13;;;8.91;61.77
18231;BME280;9240;49.966;21.994;2024-02-15T10:32:54;99616.28;;;9.05;61.76
18231;BME280;9240;49.966;21.994;2024-02-15T10:35:20;99619.44;;;9.10;61.49
18231;BME280;9240;49.966;21.994;2024-02-15T10:37:47;99616.47;;;9.16;61.16
18231;BME280;9240;49.966;21.994;2024-02-15T10:40:17;99615.81;;;9.27;60.86
18231;BME280;9240;49.966;21.994;2024-02-15T10:42:43;99611.50;;;9.40;60.38
18231;BME280;9240;49.966;21.994;2024-02-15T10:45:09;99610.59;;;9.41;60.06
18231;BME280;9240;49.966;21.994;2024-02-15T10:47:37;99614.78;;;9.30;60.12
18231;BME280;9240;49.966;21.994;2024-02-15T10:50:03;99610.78;;;9.38;59.91
18231;BME280;9240;49.966;21.994;2024-02-15T10:52:31;99609.84;;;9.39;59.68
18231;BME280;9240;49.966;21.994;2024-02-15T10:55:03;99608.91;;;9.40;59.48
18231;BME280;9240;49.966;21.994;2024-02-15T10:57:31;99600.53;;;9.50;59.14
18231;BME280;9240;49.966;21.994;2024-02-15T10:59:58;99604.91;;;9.49;59.08
18231;BME280;9240;49.966;21.994;2024-02-15T11:02:27;99603.25;;;9.48;58.96
18231;BME280;9240;49.966;21.994;2024-02-15T11:04:53;99603.16;;;9.35;59.14
18231;BME280;9240;49.966;21.994;2024-02-15T11:07:19;99607.25;;;9.39;58.99
18231;BME280;9240;49.966;21.994;2024-02-15T11:09:45;99597.47;;;9.43;58.96
18231;BME280;9240;49.966;21.994;2024-02-15T11:12:11;99596.44;;;9.60;58.57
18231;BME280;9240;49.966;21.994;2024-02-15T11:14:38;99597.63;;;9.69;58.41
18231;BME280;9240;49.966;21.994;2024-02-15T11:17:03;99595.16;;;9.80;58.17
18231;BME280;9240;49.966;21.994;2024-02-15T11:19:44;99594.91;;;9.98;57.76
18231;BME280;9240;49.966;21.994;2024-02-15T11:22:11;99593.59;;;10.05;57.74
18231;BME280;9240;49.966;21.994;2024-02-15T11:24:37;99592.97;;;10.14;57.58
18231;BME280;9240;49.966;21.994;2024-02-15T11:27:10;99589.97;;;10.21;57.48
18231;BME280;9240;49.966;21.994;2024-02-15T11:29:51;99587.44;;;10.19;56.99
18231;BME280;9240;49.966;21.994;2024-02-15T11:32:41;99585.78;;;10.18;57.10
18231;BME280;9240;49.966;21.994;2024-02-15T11:35:08;99581.22;;;10.22;57.13
18231;BME280;9240;49.966;21.994;2024-02-15T11:37:54;99581.63;;;10.15;57.20
18231;BME280;9240;49.966;21.994;2024-02-15T11:40:21;99578.41;;;10.25;57.34
18231;BME280;9240;49.966;21.994;2024-02-15T11:42:46;99577.59;;;10.37;57.23
18231;BME280;9240;49.966;21.994;2024-02-15T11:45:15;99577.13;;;10.45;56.91
18231;BME280;9240;49.966;21.994;2024-02-15T11:47:40;99573.78;;;10.43;57.03
18231;BME280;9240;49.966;21.994;2024-02-15T11:50:09;99572.91;;;10.29;56.94
18231;BME280;9240;49.966;21.994;2024-02-15T11:52:34;99572.16;;;10.14;57.12
18231;BME280;9240;49.966;21.994;2024-02-15T11:55:07;99566.41;;;10.09;57.25
18231;BME280;9240;49.966;21.994;2024-02-15T11:57:33;99562.88;;;10.10;57.36
18231;BME280;9240;49.966;21.994;2024-02-15T11:59:59;99567.34;;;10.08;57.13
18231;BME280;9240;49.966;21.994;2024-02-15T12:02:26;99560.19;;;10.12;57.31
18231;BME280;9240;49.966;21.994;2024-02-15T12:04:51;99554.34;;;10.21;57.22
18231;BME280;9240;49.966;21.994;2024-02-15T12:07:17;99551.00;;;10.19;57.13
18231;BME280;9240;49.966;21.994;2024-02-15T12:09:43;99548.56;;;10.30;56.89
18231;BME280;9240;49.966;21.994;2024-02-15T12:12:09;99553.78;;;10.43;56.84
18231;BME280;9240;49.966;21.994;2024-02-15T12:14:35;99548.78;;;10.53;56.61
18231;BME280;9240;49.966;21.994;2024-02-15T12:17:01;99551.09;;;10.58;56.21
18231;BME280;9240;49.966;21.994;2024-02-15T12:19:28;99553.47;;;10.61;56.07
18231;BME280;9240;49.966;21.994;2024-02-15T12:21:55;99551.81;;;10.60;55.93
18231;BME280;9240;49.966;21.994;2024-02-15T12:24:21;99556.59;;;10.66;55.93
18231;BME280;9240;49.966;21.994;2024-02-15T12:26:47;99551.91;;;10.71;55.72
18231;BME280;9240;49.966;21.994;2024-02-15T12:29:16;99544.09;;;10.71;55.66
18231;BME280;9240;49.966;21.994;2024-02-15T12:31:43;99538.91;;;10.58;55.89
18231;BME280;9240;49.966;21.994;2024-02-15T12:34:09;99543.91;;;10.61;55.93
18231;BME280;9240;49.966;21.994;2024-02-15T12:36:36;99539.31;;;10.65;55.87
18231;BME280;9240;49.966;21.994;2024-02-15T12:39:02;99544.31;;;10.68;55.74
18231;BME280;9240;49.966;21.994;2024-02-15T12:41:28;99541.91;;;10.78;55.63
18231;BME280;9240;49.966;21.994;2024-02-15T12:43:54;99531.78;;;10.86;55.54
18231;BME280;9240;49.966;21.994;2024-02-15T12:46:20;99533.97;;;10.80;55.59
18231;BME280;9240;49.966;21.994;2024-02-15T12:48:45;99535.88;;;10.65;55.61
18231;BME280;9240;49.966;21.994;2024-02-15T12:51:14;99529.31;;;10.59;55.69
18231;BME280;9240;49.966;21.994;2024-02-15T12:53:41;99528.81;;;10.54;55.70
18231;BME280;9240;49.966;21.994;2024-02-15T12:56:07;99527.97;;;10.40;56.03
18231;BME280;9240;49.966;21.994;2024-02-15T12:58:33;99529.41;;;10.31;56.12
18231;BME280;9240;49.966;21.994;2024-02-15T13:00:58;99525.94;;;10.31;56.37
18231;BME280;9240;49.966;21.994;2024-02-15T13:03:24;99523.69;;;10.39;56.33